createdAt,value
2019-05-02T00:02:24.132Z,68.70
2019-05-02T00:04:51.025Z,69.20
2019-05-02T00:07:21.769Z,69.50
2019-05-02T00:09:51.192Z,69.00
2019-05-02T00:12:20.808Z,69.30
2019-05-02T00:14:49.791Z,69.70
2019-05-02T00:17:20.382Z,70.00
2019-05-02T00:19:51.283Z,69.70
2019-05-02T00:22:20.492Z,69.20
2019-05-02T00:24:49.475Z,68.60
2019-05-02T00:27:18.511Z,68.60
2019-05-02T00:29:47.384Z,68.80
2019-05-02T00:32:18.351Z,68.90
2019-05-02T00:34:46.847Z,70.00
2019-05-02T00:37:18.997Z,70.20
2019-05-02T00:39:49.236Z,70.00
2019-05-02T00:42:17.644Z,69.90
2019-05-02T00:44:48.305Z,69.90
2019-05-02T00:47:18.899Z,69.80
2019-05-02T00:49:48.428Z,70.60
2019-05-02T00:52:17.306Z,70.80
2019-05-02T00:54:46.231Z,70.80
2019-05-02T00:57:19.787Z,70.30
2019-05-02T00:59:45.707Z,70.40
2019-05-02T01:02:16.160Z,70.50
2019-05-02T01:04:46.896Z,71.00
2019-05-02T01:07:15.783Z,71.20
2019-05-02T01:09:46.762Z,71.10
2019-05-02T01:12:25.769Z,71.60
2019-05-02T01:14:45.907Z,71.70
2019-05-02T01:17:14.881Z,71.70
2019-05-02T01:19:47.148Z,71.40
2019-05-02T01:22:16.011Z,71.50
2019-05-02T01:24:44.911Z,71.70
2019-05-02T01:27:15.462Z,71.40
2019-05-02T01:29:45.978Z,71.10
2019-05-02T01:32:16.440Z,71.30
2019-05-02T01:34:54.573Z,72.00
2019-05-02T01:37:22.104Z,70.90
2019-05-02T01:39:51.023Z,70.30
2019-05-02T01:42:19.913Z,70.20
2019-05-02T01:44:48.841Z,71.00
2019-05-02T01:47:17.725Z,71.20
2019-05-02T01:49:46.669Z,71.60
2019-05-02T01:52:18.940Z,72.10
2019-05-02T01:54:47.587Z,71.90
2019-05-02T01:57:16.678Z,72.20
2019-05-02T01:59:45.629Z,72.50
2019-05-02T02:02:14.897Z,71.50
2019-05-02T02:04:43.782Z,71.80
2019-05-02T02:12:13.044Z,71.40
2019-05-02T02:14:41.920Z,71.00
2019-05-02T02:17:15.503Z,70.40
2019-05-02T02:19:42.951Z,71.10
2019-05-02T02:22:19.333Z,70.70
2019-05-02T02:24:49.796Z,70.80
2019-05-02T03:47:28.126Z,74.40
2019-05-02T03:52:25.836Z,73.00
2019-05-02T03:57:32.322Z,72.90
2019-05-02T03:59:54.046Z,73.30
2019-05-02T04:02:24.327Z,73.20
2019-05-02T04:05:00.322Z,72.10
2019-05-02T04:09:52.770Z,72.70
2019-05-02T04:12:22.040Z,73.20
2019-05-02T04:14:57.478Z,72.80
2019-05-02T04:17:29.145Z,72.70
2019-05-02T04:19:57.423Z,72.40
2019-05-02T04:22:27.106Z,72.20
2019-05-02T04:24:57.196Z,72.70
2019-05-02T04:27:27.808Z,72.70
2019-05-02T04:29:57.290Z,73.00
2019-05-02T04:32:26.171Z,73.00
2019-05-02T04:34:57.908Z,72.40
2019-05-02T04:37:25.626Z,72.00
2019-05-02T04:39:59.111Z,70.50
2019-05-02T04:42:25.092Z,71.10
2019-05-02T04:45:13.955Z,71.10
2019-05-02T04:47:24.537Z,71.30
2019-05-02T04:49:53.448Z,70.80
2019-05-02T04:52:22.333Z,70.80
2019-05-02T04:54:51.249Z,70.10
2019-05-02T04:57:20.140Z,69.80
2019-05-02T04:59:50.481Z,69.40
2019-05-02T05:02:20.955Z,69.50
2019-05-02T05:04:50.196Z,69.00
2019-05-02T05:07:19.088Z,68.70
2019-05-02T05:09:57.010Z,68.60
2019-05-02T05:12:23.841Z,67.90
2019-05-02T05:14:57.845Z,67.90
2019-05-02T05:17:32.456Z,67.90
2019-05-02T05:20:00.172Z,68.10
2019-05-02T05:22:30.219Z,67.90
2019-05-02T05:25:12.225Z,68.00
2019-05-02T05:27:39.378Z,68.60
2019-05-02T05:30:15.443Z,67.20
2019-05-02T05:35:13.055Z,66.70
2019-05-02T05:37:43.348Z,67.00
2019-05-02T05:40:12.851Z,67.00
2019-05-02T05:42:41.768Z,66.30
2019-05-02T05:45:13.836Z,66.20
2019-05-02T05:47:41.307Z,65.90
2019-05-02T05:50:10.291Z,65.60
2019-05-02T05:52:42.455Z,64.40
2019-05-02T05:55:12.682Z,64.80
2019-05-02T05:57:40.347Z,64.30
2019-05-02T06:00:15.568Z,63.20
2019-05-02T06:02:52.858Z,63.20
2019-05-02T06:05:10.698Z,61.60
2019-05-02T06:07:41.810Z,60.90
2019-05-02T06:10:10.476Z,61.10
2019-05-02T06:12:39.413Z,61.40
2019-05-02T06:15:08.496Z,60.70
2019-05-02T06:17:37.419Z,60.00
2019-05-02T06:20:09.010Z,59.80
2019-05-02T06:22:38.054Z,59.50
2019-05-02T06:25:09.771Z,60.00
2019-05-02T06:27:39.171Z,58.80
2019-05-02T06:30:09.147Z,58.70
2019-05-02T06:32:38.075Z,58.30
2019-05-02T06:35:07.843Z,58.70
2019-05-02T06:37:36.772Z,58.70
2019-05-02T06:40:09.447Z,57.20
2019-05-02T06:42:38.617Z,56.60
2019-05-02T06:52:35.979Z,56.60
2019-05-02T07:47:40.427Z,48.20
2019-05-02T07:50:10.453Z,49.10
2019-05-02T07:52:40.631Z,48.70
2019-05-02T07:55:10.058Z,49.10
2019-05-02T07:57:38.903Z,46.90
2019-05-02T08:00:10.242Z,46.40
2019-05-02T08:02:39.171Z,46.50
2019-05-02T08:05:08.913Z,46.60
2019-05-02T08:07:38.106Z,45.20
2019-05-02T08:10:07.922Z,44.90
2019-05-02T08:12:36.925Z,45.00
2019-05-02T08:15:13.047Z,44.60
2019-05-02T08:17:38.397Z,45.00
2019-05-02T08:20:08.785Z,46.50
2019-05-02T08:22:37.799Z,46.10
2019-05-02T08:25:10.334Z,44.80
2019-05-02T08:27:43.179Z,45.70
2019-05-02T08:30:14.229Z,44.80
2019-05-02T08:32:43.155Z,45.80
2019-05-02T08:35:12.037Z,46.10
2019-05-02T08:37:42.794Z,46.20
2019-05-02T08:40:12.131Z,45.20
2019-05-02T08:42:41.127Z,45.60
2019-05-02T08:45:10.427Z,45.00
2019-05-02T08:47:39.357Z,46.50
2019-05-02T08:50:08.451Z,45.90
2019-05-02T08:52:42.395Z,46.30
2019-05-02T08:55:09.669Z,45.60
2019-05-02T08:57:39.788Z,46.30
2019-05-02T09:00:10.928Z,45.70
2019-05-02T09:02:41.513Z,44.20
2019-05-02T09:05:10.803Z,45.30
2019-05-02T09:07:42.775Z,42.80
2019-05-02T09:10:11.363Z,43.70
2019-05-02T09:12:42.069Z,43.30
2019-05-02T09:15:11.831Z,45.00
2019-05-02T09:17:44.731Z,45.40
2019-05-02T09:20:18.782Z,45.60
2019-05-02T09:22:46.548Z,43.90
2019-05-02T09:25:13.506Z,44.70
2019-05-02T09:27:42.713Z,45.00
2019-05-02T09:30:17.014Z,42.30
2019-05-02T09:32:43.102Z,45.40
2019-05-02T09:35:12.082Z,43.90
2019-05-02T09:37:41.931Z,44.00
2019-05-02T09:40:16.364Z,42.20
2019-05-02T09:42:43.042Z,42.90
2019-05-02T09:45:16.057Z,42.30
2019-05-02T09:47:56.654Z,44.10
2019-05-02T09:50:20.499Z,43.80
2019-05-02T09:52:47.818Z,42.70
2019-05-02T09:55:17.954Z,41.50
2019-05-02T09:57:46.877Z,42.00
2019-05-02T10:00:36.342Z,41.50
2019-05-02T10:03:05.905Z,39.90
2019-05-02T10:05:34.955Z,41.50
2019-05-02T10:08:06.874Z,41.50
2019-05-02T10:10:37.251Z,41.10
2019-05-02T10:13:06.947Z,42.10
2019-05-02T10:15:35.843Z,40.60
2019-05-02T10:18:10.657Z,39.70
2019-05-02T10:20:36.510Z,40.20
2019-05-02T10:23:06.117Z,40.60
2019-05-02T10:25:38.458Z,39.40
2019-05-02T10:28:06.075Z,39.90
2019-05-02T10:30:36.139Z,40.50
2019-05-02T10:33:05.891Z,41.50
2019-05-02T10:35:40.374Z,41.90
2019-05-02T10:38:09.549Z,39.30
2019-05-02T10:40:37.662Z,40.70
2019-05-02T10:43:06.607Z,40.50
2019-05-02T10:45:36.267Z,40.40
2019-05-02T10:48:05.305Z,38.80
2019-05-02T10:50:47.871Z,39.20
2019-05-02T10:53:16.825Z,38.30
2019-05-02T10:55:46.108Z,37.80
2019-05-02T10:58:15.034Z,38.30
2019-05-02T11:00:45.489Z,37.40
2019-05-02T11:03:32.022Z,39.20
2019-05-02T11:06:03.671Z,39.00
2019-05-02T11:08:36.670Z,38.80
2019-05-02T11:11:06.096Z,38.30
2019-05-02T11:13:42.484Z,39.00
2019-05-02T11:16:18.963Z,38.20
2019-05-02T11:19:05.991Z,37.40
2019-05-02T11:21:34.872Z,35.40
2019-05-02T11:24:03.796Z,36.90
2019-05-02T11:26:32.725Z,36.80
2019-05-02T11:29:02.955Z,35.70
2019-05-02T11:31:32.595Z,35.80
2019-05-02T11:34:04.713Z,35.70
2019-05-02T11:36:33.646Z,35.40
2019-05-02T11:39:14.680Z,34.80
2019-05-02T11:41:33.095Z,37.10
2019-05-02T11:44:03.015Z,35.00
2019-05-02T11:46:33.041Z,33.80
2019-05-02T11:49:02.549Z,35.40
2019-05-02T11:51:32.589Z,33.60
2019-05-02T11:54:05.216Z,33.40
2019-05-02T11:56:33.108Z,31.80
2019-05-02T11:59:02.772Z,32.00
2019-05-02T12:01:39.053Z,33.80
2019-05-02T12:04:07.637Z,34.80
2019-05-02T12:06:35.378Z,33.30
2019-05-02T12:09:08.396Z,30.90
2019-05-02T12:11:37.310Z,33.00
2019-05-02T12:14:06.294Z,34.50
2019-05-02T12:16:35.282Z,32.10
2019-05-02T12:19:11.785Z,31.00
2019-05-02T12:21:35.108Z,31.70
2019-05-02T12:24:04.081Z,30.80
2019-05-02T12:26:36.332Z,30.70
2019-05-02T12:29:05.281Z,32.60
2019-05-02T12:31:34.305Z,32.20
2019-05-02T12:34:04.890Z,30.80
2019-05-02T12:36:33.923Z,29.90
2019-05-02T12:39:03.175Z,31.50
2019-05-02T12:41:33.103Z,30.00
2019-05-02T12:44:02.493Z,28.30
2019-05-02T12:46:31.868Z,29.40
2019-05-02T12:49:02.852Z,31.60
2019-05-02T12:51:32.166Z,32.20
2019-05-02T12:54:02.271Z,32.00
2019-05-02T12:56:32.629Z,31.30
2019-05-02T12:59:02.416Z,30.40
2019-05-02T13:01:33.849Z,29.80
2019-05-02T13:04:07.211Z,30.00
2019-05-02T13:06:37.267Z,31.30
2019-05-02T13:09:12.698Z,31.50
2019-05-02T13:11:45.753Z,29.50
2019-05-02T13:14:19.133Z,28.90
2019-05-02T13:16:44.134Z,29.10
2019-05-02T13:19:13.073Z,28.90
2019-05-02T13:22:01.660Z,28.80
2019-05-02T13:24:47.064Z,28.80
2019-05-02T13:27:16.019Z,27.20
2019-05-02T13:29:45.133Z,28.20
2019-05-02T13:32:18.675Z,28.10
2019-05-02T13:34:48.673Z,27.00
2019-05-02T13:37:22.475Z,26.90
2019-05-02T13:40:11.970Z,27.20
2019-05-02T13:42:41.762Z,27.30
2019-05-02T13:45:15.852Z,27.80
2019-05-02T13:47:44.745Z,28.20
2019-05-02T13:50:14.078Z,27.80
2019-05-02T13:52:45.278Z,28.10
2019-05-02T13:55:15.301Z,25.50
2019-05-02T13:57:46.954Z,27.60
2019-05-02T14:00:17.428Z,27.50
2019-05-02T14:02:46.758Z,26.00
2019-05-02T14:05:16.540Z,26.50
2019-05-02T14:07:48.146Z,25.40
2019-05-02T14:10:25.567Z,27.20
2019-05-02T14:12:58.782Z,27.20
2019-05-02T14:15:29.328Z,26.50
2019-05-02T14:17:59.141Z,24.90
2019-05-02T14:20:30.345Z,24.80
2019-05-02T14:23:01.998Z,25.70
2019-05-02T14:25:32.253Z,25.30
2019-05-02T14:28:02.978Z,24.10
2019-05-02T14:30:39.360Z,25.20
2019-05-02T14:33:08.876Z,25.80
2019-05-02T14:35:39.291Z,27.60
2019-05-02T14:38:12.818Z,26.50
2019-05-02T14:40:56.793Z,26.10
2019-05-02T14:43:46.681Z,26.70
2019-05-02T14:46:17.570Z,29.30
2019-05-02T14:48:46.811Z,27.40
2019-05-02T14:51:24.968Z,26.80
2019-05-02T14:53:48.691Z,27.60
2019-05-02T14:56:19.693Z,26.30
2019-05-02T14:58:52.616Z,27.10
2019-05-02T15:01:26.073Z,26.20
2019-05-02T15:03:58.364Z,26.20
2019-05-02T15:06:25.256Z,25.80
2019-05-02T15:09:24.826Z,25.90
2019-05-02T15:12:02.897Z,25.30
2019-05-02T15:14:34.067Z,25.70
2019-05-02T15:17:05.057Z,26.00
2019-05-02T15:19:36.093Z,28.60
2019-05-02T15:22:07.341Z,26.30
2019-05-02T15:24:38.724Z,27.00
2019-05-02T15:27:13.608Z,27.90
2019-05-02T15:29:42.159Z,26.60
2019-05-02T15:32:14.556Z,27.00
2019-05-02T15:35:02.481Z,27.60
2019-05-02T15:37:35.720Z,27.00
2019-05-02T15:42:36.276Z,27.60
2019-05-02T15:45:08.004Z,27.20
2019-05-02T15:47:41.555Z,28.20
2019-05-02T15:50:09.487Z,29.30
2019-05-02T15:52:42.042Z,27.10
2019-05-02T15:55:13.865Z,27.80
2019-05-02T15:57:49.386Z,28.80
2019-05-02T16:00:25.810Z,27.80
2019-05-02T16:02:56.306Z,29.80
2019-05-02T16:05:27.355Z,29.90
2019-05-02T16:08:05.236Z,30.80
2019-05-02T16:10:33.467Z,31.10
2019-05-02T16:13:03.742Z,30.00
2019-05-02T16:15:34.488Z,30.20
2019-05-02T16:18:06.792Z,31.20
2019-05-02T16:20:47.354Z,31.00
2019-05-02T16:23:13.324Z,31.50
2019-05-02T16:25:43.057Z,30.50
2019-05-02T16:28:12.799Z,31.30
2019-05-02T16:30:47.387Z,33.40
2019-05-02T16:33:19.541Z,32.50
2019-05-02T16:35:51.543Z,33.70
2019-05-02T16:38:22.103Z,34.10
2019-05-02T16:40:52.653Z,34.50
2019-05-02T16:43:24.817Z,34.60
2019-05-02T16:45:55.160Z,34.90
2019-05-02T16:48:24.631Z,35.30
2019-05-02T16:50:54.841Z,36.00
2019-05-02T16:53:26.346Z,35.40
2019-05-02T16:55:58.391Z,36.40
2019-05-02T16:58:28.649Z,36.90
2019-05-02T17:00:57.740Z,35.60
2019-05-02T17:03:26.769Z,35.80
2019-05-02T17:05:55.651Z,37.00
2019-05-02T17:08:35.406Z,36.60
2019-05-02T17:11:15.382Z,36.60
2019-05-02T17:13:42.507Z,38.80
2019-05-02T17:16:16.965Z,38.60
2019-05-02T17:18:43.447Z,38.00
2019-05-02T17:21:12.706Z,38.60
2019-05-02T17:23:46.368Z,39.30
2019-05-02T17:26:12.650Z,40.20
2019-05-02T17:28:43.277Z,39.70
2019-05-02T17:31:19.269Z,39.40
2019-05-02T17:33:46.311Z,39.90
2019-05-02T17:36:13.336Z,40.10
2019-05-02T17:38:42.370Z,40.40
2019-05-02T17:41:11.869Z,40.70
2019-05-02T17:43:42.366Z,44.50
2019-05-02T17:46:18.433Z,44.60
2019-05-02T17:48:47.764Z,41.70
2019-05-02T17:51:22.741Z,42.60
2019-05-02T17:53:52.385Z,43.40
2019-05-02T17:56:23.180Z,43.10
2019-05-02T17:58:54.090Z,43.30
2019-05-02T18:01:26.333Z,44.40
2019-05-02T18:03:55.029Z,45.30
2019-05-02T18:06:32.358Z,44.60
2019-05-02T18:08:55.390Z,44.70
2019-05-02T18:11:24.556Z,45.30
2019-05-02T18:13:53.499Z,45.90
2019-05-02T18:16:22.582Z,46.80
2019-05-02T18:18:52.140Z,47.60
2019-05-02T18:21:26.935Z,51.40
2019-05-02T18:23:52.144Z,51.10
2019-05-02T18:26:22.218Z,54.60
2019-05-02T18:28:52.636Z,55.30
2019-05-02T18:31:21.808Z,56.30
2019-05-02T18:33:52.051Z,54.80
2019-05-02T18:36:23.940Z,55.40
2019-05-02T18:39:00.193Z,55.10
2019-05-02T18:41:23.600Z,54.20
2019-05-02T18:43:52.604Z,55.20
2019-05-02T18:46:22.321Z,54.50
2019-05-02T18:48:51.864Z,54.60
2019-05-02T18:51:21.859Z,55.10
2019-05-02T18:53:52.906Z,55.50
2019-05-02T18:56:22.193Z,54.80
2019-05-02T18:58:53.516Z,55.10
2019-05-02T19:01:22.448Z,55.70
2019-05-02T19:03:59.015Z,56.10
2019-05-02T19:06:36.175Z,56.80
2019-05-02T19:09:12.566Z,56.90
2019-05-02T19:11:48.410Z,57.30
2019-05-02T19:14:22.294Z,57.80
2019-05-02T19:16:52.179Z,58.20
2019-05-02T19:19:27.435Z,58.90
2019-05-02T19:22:02.463Z,59.00
2019-05-02T19:24:36.609Z,59.30
2019-05-02T19:27:12.766Z,60.00
2019-05-02T19:29:48.188Z,60.20
2019-05-02T19:32:25.510Z,60.80
2019-05-02T19:34:53.135Z,61.10
2019-05-02T19:37:23.815Z,61.10
2019-05-02T19:39:56.834Z,62.00
2019-05-02T19:42:30.475Z,61.90
2019-05-02T19:45:03.717Z,61.70
2019-05-02T19:47:31.892Z,62.40
2019-05-02T19:50:02.930Z,62.10
2019-05-02T19:52:39.175Z,61.90
2019-05-02T19:55:06.350Z,62.60
2019-05-02T19:57:36.855Z,61.80
2019-05-02T20:00:12.070Z,62.10
2019-05-02T20:02:42.397Z,62.20
2019-05-02T20:05:16.489Z,62.10
2019-05-02T20:07:47.041Z,61.80
2019-05-02T20:10:18.197Z,62.30
2019-05-02T20:12:50.464Z,63.10
2019-05-02T20:15:25.444Z,62.40
2019-05-02T20:17:55.314Z,62.10
2019-05-02T20:21:04.767Z,62.80
2019-05-02T20:23:35.686Z,62.60
2019-05-02T20:26:09.389Z,62.30
2019-05-02T20:28:36.165Z,62.70
2019-05-02T20:31:06.563Z,63.10
2019-05-02T20:33:35.597Z,64.30
2019-05-02T20:36:05.600Z,66.10
2019-05-02T20:38:37.013Z,68.00
2019-05-02T20:41:08.567Z,69.60
2019-05-02T20:43:38.851Z,70.40
2019-05-02T20:46:07.844Z,71.00
2019-05-02T20:48:36.784Z,72.50
2019-05-02T20:51:05.876Z,73.30
2019-05-02T20:53:42.045Z,73.50
2019-05-02T20:56:12.409Z,74.50
2019-05-02T20:58:42.236Z,76.00
2019-05-02T21:01:12.428Z,79.10
2019-05-02T21:03:43.475Z,81.60
2019-05-02T21:06:20.503Z,81.70
2019-05-02T21:08:52.548Z,82.80
2019-05-02T21:11:23.946Z,81.10
2019-05-02T21:13:53.388Z,82.40
2019-05-02T21:16:22.277Z,83.30
2019-05-02T21:18:53.028Z,84.50
2019-05-02T21:21:22.883Z,85.00
2019-05-02T21:23:58.722Z,86.00
2019-05-02T21:26:27.775Z,86.60
2019-05-02T21:29:00.196Z,86.10
2019-05-02T21:31:31.922Z,86.50
2019-05-02T21:34:02.551Z,86.10
2019-05-02T21:36:31.996Z,86.80
2019-05-02T21:39:02.769Z,86.30
2019-05-02T21:41:33.024Z,86.60
2019-05-02T21:44:02.545Z,86.60
2019-05-02T21:46:31.836Z,85.70
2019-05-02T21:49:00.823Z,86.30
2019-05-02T21:51:33.860Z,86.60
2019-05-02T21:54:16.638Z,86.80
2019-05-02T21:56:47.151Z,86.90
2019-05-02T21:59:16.035Z,87.20
2019-05-02T22:01:49.120Z,86.10
2019-05-02T22:04:18.119Z,85.00
2019-05-02T22:06:47.268Z,86.90
2019-05-02T22:09:16.155Z,86.10
2019-05-02T22:11:45.085Z,86.80
2019-05-02T22:14:13.956Z,86.50
2019-05-02T22:16:44.513Z,85.70
2019-05-02T22:19:13.413Z,85.00
2019-05-02T22:21:43.064Z,86.90
2019-05-02T22:24:14.278Z,86.80
2019-05-02T22:26:43.562Z,87.50
2019-05-02T22:29:12.628Z,87.50
2019-05-02T22:31:43.006Z,87.50
2019-05-02T22:34:12.850Z,88.70
2019-05-02T22:36:43.066Z,87.20
2019-05-02T22:39:31.645Z,88.20
2019-05-02T22:42:02.011Z,87.70
2019-05-02T22:47:24.129Z,87.80
2019-05-02T22:49:53.014Z,87.90
2019-05-02T22:52:21.997Z,89.00
2019-05-02T22:54:52.296Z,87.50
2019-05-02T22:57:22.593Z,87.60
2019-05-02T22:59:51.745Z,88.20
2019-05-02T23:02:21.993Z,89.10
2019-05-02T23:04:52.628Z,88.40
2019-05-02T23:07:22.286Z,87.90
2019-05-02T23:09:52.644Z,87.60
2019-05-02T23:12:22.546Z,87.10
2019-05-02T23:14:52.468Z,87.50
2019-05-02T23:17:23.032Z,87.50
2019-05-02T23:19:52.771Z,86.50
2019-05-02T23:22:21.963Z,87.60
2019-05-02T23:25:04.245Z,87.00
2019-05-02T23:27:34.690Z,87.20
2019-05-02T23:30:04.535Z,86.30
2019-05-02T23:32:33.421Z,86.90
2019-05-02T23:35:02.350Z,86.80
2019-05-02T23:37:32.620Z,85.40
2019-05-02T23:40:02.110Z,85.30
2019-05-02T23:42:31.077Z,83.50
2019-05-02T23:45:00.006Z,85.20
2019-05-02T23:47:28.891Z,84.60
2019-05-02T23:49:57.842Z,85.40
2019-05-02T23:52:26.732Z,85.40
2019-05-02T23:54:55.671Z,85.60
2019-05-02T23:57:24.556Z,86.50
2019-05-02T23:59:53.499Z,86.60
